sensor_id;sensor_type;location;lat;lon;timestamp;pressure;altitude;pressure_sealevel;temperature;humidity
40384;BME280;26097;42.366;23.818;2023-04-06T00:01:42;93710.94;;;-2.10;100.00
40384;BME280;26097;42.366;23.818;2023-04-06T00:04:42;93702.50;;;-2.12;100.00
40384;BME280;26097;42.366;23.818;2023-04-06T00:07:43;93705.06;;;-2.12;100.00
40384;BME280;26097;42.366;23.818;2023-04-06T00:10:43;93694.97;;;-2.16;100.00
40384;BME280;26097;42.366;23.818;2023-04-06T00:13:44;93699.34;;;-2.21;100.00
40384;BME280;26097;42.366;23.818;2023-04-06T00:16:45;93690.81;;;-2.20;100.00
40384;BME280;26097;42.366;23.818;2023-04-06T00:19:45;93684.91;;;-2.22;100.00
40384;BME280;26097;42.366;23.818;2023-04-06T00:22:46;93673.16;;;-2.26;100.00
40384;BME280;26097;42.366;23.818;2023-04-06T00:25:46;93678.25;;;-2.26;100.00
40384;BME280;26097;42.366;23.818;2023-04-06T00:28:47;93670.38;;;-2.20;100.00
40384;BME280;26097;42.366;23.818;2023-04-06T00:31:47;93673.94;;;-2.24;100.00
40384;BME280;26097;42.366;23.818;2023-04-06T00:34:48;93663.50;;;-2.18;100.00
40384;BME280;26097;42.366;23.818;2023-04-06T00:37:48;93650.91;;;-2.22;100.00
40384;BME280;26097;42.366;23.818;2023-04-06T00:40:49;93658.69;;;-2.25;100.00
40384;BME280;26097;42.366;23.818;2023-04-06T00:43:50;93663.72;;;-2.24;100.00
40384;BME280;26097;42.366;23.818;2023-04-06T00:46:51;93662.25;;;-2.31;100.00
40384;BME280;26097;42.366;23.818;2023-04-06T00:49:55;93653.59;;;-2.27;100.00
40384;BME280;26097;42.366;23.818;2023-04-06T00:52:56;93650.50;;;-2.35;100.00
40384;BME280;26097;42.366;23.818;2023-04-06T00:55:57;93650.31;;;-2.31;100.00
40384;BME280;26097;42.366;23.818;2023-04-06T00:58:57;93660.59;;;-2.32;100.00
40384;BME280;26097;42.366;23.818;2023-04-06T01:01:58;93650.56;;;-2.38;100.00
40384;BME280;26097;42.366;23.818;2023-04-06T01:04:58;93648.91;;;-2.39;100.00
40384;BME280;26097;42.366;23.818;2023-04-06T01:07:59;93648.78;;;-2.36;100.00
40384;BME280;26097;42.366;23.818;2023-04-06T01:11:00;93643.69;;;-2.36;100.00
40384;BME280;26097;42.366;23.818;2023-04-06T01:14:03;93647.94;;;-2.35;100.00
40384;BME280;26097;42.366;23.818;2023-04-06T01:17:04;93642.03;;;-2.37;100.00
40384;BME280;26097;42.366;23.818;2023-04-06T01:20:05;93642.13;;;-2.40;100.00
40384;BME280;26097;42.366;23.818;2023-04-06T01:23:06;93646.59;;;-2.47;100.00
40384;BME280;26097;42.366;23.818;2023-04-06T01:26:06;93641.66;;;-2.52;100.00
40384;BME280;26097;42.366;23.818;2023-04-06T01:29:07;93636.56;;;-2.52;100.00
40384;BME280;26097;42.366;23.818;2023-04-06T01:32:08;93635.84;;;-2.57;100.00
40384;BME280;26097;42.366;23.818;2023-04-06T01:35:08;93637.72;;;-2.62;100.00
40384;BME280;26097;42.366;23.818;2023-04-06T01:38:09;93642.81;;;-2.62;100.00
40384;BME280;26097;42.366;23.818;2023-04-06T01:41:09;93635.16;;;-2.62;100.00
40384;BME280;26097;42.366;23.818;2023-04-06T01:44:10;93638.72;;;-2.66;100.00
40384;BME280;26097;42.366;23.818;2023-04-06T01:47:11;93632.81;;;-2.68;100.00
40384;BME280;26097;42.366;23.818;2023-04-06T01:50:11;93634.50;;;-2.67;100.00
40384;BME280;26097;42.366;23.818;2023-04-06T01:53:12;93632.81;;;-2.68;100.00
40384;BME280;26097;42.366;23.818;2023-04-06T01:56:12;93624.41;;;-2.70;100.00
40384;BME280;26097;42.366;23.818;2023-04-06T01:59:13;93616.75;;;-2.70;100.00
40384;BME280;26097;42.366;23.818;2023-04-06T02:02:13;93621.06;;;-2.73;100.00
40384;BME280;26097;42.366;23.818;2023-04-06T02:05:14;93613.19;;;-2.66;100.00
40384;BME280;26097;42.366;23.818;2023-04-06T02:08:14;93615.00;;;-2.70;100.00
40384;BME280;26097;42.366;23.818;2023-04-06T02:11:15;93620.09;;;-2.70;100.00
40384;BME280;26097;42.366;23.818;2023-04-06T02:14:15;93615.72;;;-2.65;100.00
40384;BME280;26097;42.366;23.818;2023-04-06T02:17:16;93605.53;;;-2.66;100.00
40384;BME280;26097;42.366;23.818;2023-04-06T02:20:16;93609.88;;;-2.68;100.00
40384;BME280;26097;42.366;23.818;2023-04-06T02:23:17;93604.88;;;-2.71;100.00
40384;BME280;26097;42.366;23.818;2023-04-06T02:26:17;93609.09;;;-2.70;100.00
40384;BME280;26097;42.366;23.818;2023-04-06T02:29:18;93603.00;;;-2.66;100.00
40384;BME280;26097;42.366;23.818;2023-04-06T02:32:19;93600.44;;;-2.66;100.00
40384;BME280;26097;42.366;23.818;2023-04-06T02:35:19;93611.22;;;-2.58;100.00
40384;BME280;26097;42.366;23.818;2023-04-06T02:38:19;93604.41;;;-2.58;100.00
40384;BME280;26097;42.366;23.818;2023-04-06T02:41:20;93614.47;;;-2.53;100.00
40384;BME280;26097;42.366;23.818;2023-04-06T02:44:20;93611.03;;;-2.52;100.00
40384;BME280;26097;42.366;23.818;2023-04-06T02:47:21;93616.81;;;-2.47;100.00
40384;BME280;26097;42.366;23.818;2023-04-06T02:50:21;93610.69;;;-2.41;100.00
40384;BME280;26097;42.366;23.818;2023-04-06T02:53:22;93616.50;;;-2.37;100.00
40384;BME280;26097;42.366;23.818;2023-04-06T02:56:22;93614.75;;;-2.35;100.00
40384;BME280;26097;42.366;23.818;2023-04-06T02:59:23;93618.09;;;-2.33;100.00
40384;BME280;26097;42.366;23.818;2023-04-06T03:02:23;93616.31;;;-2.31;100.00
40384;BME280;26097;42.366;23.818;2023-04-06T03:05:23;93620.69;;;-2.35;100.00
40384;BME280;26097;42.366;23.818;2023-04-06T03:08:24;93614.75;;;-2.35;100.00
40384;BME280;26097;42.366;23.818;2023-04-06T03:11:25;93624.06;;;-2.34;100.00
40384;BME280;26097;42.366;23.818;2023-04-06T03:14:27;93615.34;;;-2.28;100.00
40384;BME280;26097;42.366;23.818;2023-04-06T03:17:28;93622.09;;;-2.26;100.00
40384;BME280;26097;42.366;23.818;2023-04-06T03:20:28;93612.63;;;-2.22;100.00
40384;BME280;26097;42.366;23.818;2023-04-06T03:23:29;93614.03;;;-2.13;100.00
40384;BME280;26097;42.366;23.818;2023-04-06T03:26:29;93622.25;;;-2.05;100.00
40384;BME280;26097;42.366;23.818;2023-04-06T03:29:30;93610.03;;;-1.97;100.00
40384;BME280;26097;42.366;23.818;2023-04-06T03:32:31;93611.72;;;-1.96;100.00
40384;BME280;26097;42.366;23.818;2023-04-06T03:35:31;93618.38;;;-1.92;100.00
40384;BME280;26097;42.366;23.818;2023-04-06T03:38:33;93616.59;;;-1.90;100.00
40384;BME280;26097;42.366;23.818;2023-04-06T03:41:34;93608.16;;;-1.92;100.00
40384;BME280;26097;42.366;23.818;2023-04-06T03:44:34;93613.38;;;-1.95;100.00
40384;BME280;26097;42.366;23.818;2023-04-06T03:47:35;93615.13;;;-1.97;100.00
40384;BME280;26097;42.366;23.818;2023-04-06T03:50:35;93607.47;;;-1.97;100.00
40384;BME280;26097;42.366;23.818;2023-04-06T03:53:36;93614.19;;;-1.94;100.00
40384;BME280;26097;42.366;23.818;2023-04-06T03:56:37;93613.47;;;-1.98;100.00
40384;BME280;26097;42.366;23.818;2023-04-06T03:59:37;93614.09;;;-1.91;100.00
40384;BME280;26097;42.366;23.818;2023-04-06T04:02:38;93610.59;;;-1.89;100.00
40384;BME280;26097;42.366;23.818;2023-04-06T04:05:38;93609.59;;;-1.84;100.00
40384;BME280;26097;42.366;23.818;2023-04-06T04:08:39;93613.81;;;-1.83;100.00
40384;BME280;26097;42.366;23.818;2023-04-06T04:11:39;93612.13;;;-1.83;100.00
40384;BME280;26097;42.366;23.818;2023-04-06T04:14:40;93617.84;;;-1.76;100.00
40384;BME280;26097;42.366;23.818;2023-04-06T04:17:40;93621.88;;;-1.70;100.00
40384;BME280;26097;42.366;23.818;2023-04-06T04:20:41;93619.16;;;-1.66;100.00
40384;BME280;26097;42.366;23.818;2023-04-06T04:23:41;93624.03;;;-1.60;100.00
40384;BME280;26097;42.366;23.818;2023-04-06T04:26:42;93627.16;;;-1.51;100.00
40384;BME280;26097;42.366;23.818;2023-04-06T04:29:42;93626.69;;;-1.39;100.00
40384;BME280;26097;42.366;23.818;2023-04-06T04:32:43;93634.94;;;-1.31;100.00
40384;BME280;26097;42.366;23.818;2023-04-06T04:35:44;93618.28;;;-1.19;100.00
40384;BME280;26097;42.366;23.818;2023-04-06T04:38:45;93622.97;;;-1.06;100.00
40384;BME280;26097;42.366;23.818;2023-04-06T04:41:45;93613.91;;;-0.93;100.00
40384;BME280;26097;42.366;23.818;2023-04-06T04:44:46;93623.84;;;-0.85;100.00
40384;BME280;26097;42.366;23.818;2023-04-06T04:47:46;93607.22;;;-0.75;100.00
40384;BME280;26097;42.366;23.818;2023-04-06T04:50:46;93615.69;;;-0.73;100.00
40384;BME280;26097;42.366;23.818;2023-04-06T04:53:47;93614.63;;;-0.67;100.00
40384;BME280;26097;42.366;23.818;2023-04-06T04:56:48;93610.41;;;-0.47;100.00
40384;BME280;26097;42.366;23.818;2023-04-06T04:59:48;93626.09;;;-0.34;100.00
40384;BME280;26097;42.366;23.818;2023-04-06T05:02:50;93626.25;;;-0.17;100.00
40384;BME280;26097;42.366;23.818;2023-04-06T05:05:50;93619.31;;;0.06;100.00
40384;BME280;26097;42.366;23.818;2023-04-06T05:08:51;93612.78;;;0.20;100.00
40384;BME280;26097;42.366;23.818;2023-04-06T05:11:51;93609.94;;;0.26;100.00
40384;BME280;26097;42.366;23.818;2023-04-06T05:14:51;93606.91;;;0.37;100.00
40384;BME280;26097;42.366;23.818;2023-04-06T05:17:53;93612.59;;;0.44;100.00
40384;BME280;26097;42.366;23.818;2023-04-06T05:20:53;93607.47;;;0.44;100.00
40384;BME280;26097;42.366;23.818;2023-04-06T05:23:54;93618.16;;;0.53;100.00
40384;BME280;26097;42.366;23.818;2023-04-06T05:26:54;93609.06;;;0.65;100.00
40384;BME280;26097;42.366;23.818;2023-04-06T05:29:55;93610.78;;;0.84;100.00
40384;BME280;26097;42.366;23.818;2023-04-06T05:32:56;93615.16;;;0.82;100.00
40384;BME280;26097;42.366;23.818;2023-04-06T05:35:56;93606.75;;;0.97;100.00
40384;BME280;26097;42.366;23.818;2023-04-06T05:38:56;93604.09;;;1.18;100.00
40384;BME280;26097;42.366;23.818;2023-04-06T05:41:57;93605.00;;;1.35;100.00
40384;BME280;26097;42.366;23.818;2023-04-06T05:44:57;93601.09;;;1.45;100.00
40384;BME280;26097;42.366;23.818;2023-04-06T05:47:58;93600.66;;;1.54;100.00
40384;BME280;26097;42.366;23.818;2023-04-06T05:50:58;93598.72;;;1.60;100.00
40384;BME280;26097;42.366;23.818;2023-04-06T05:54:00;93587.06;;;1.88;100.00
40384;BME280;26097;42.366;23.818;2023-04-06T05:57:02;93595.97;;;1.98;100.00
40384;BME280;26097;42.366;23.818;2023-04-06T06:00:04;93594.25;;;2.14;100.00
40384;BME280;26097;42.366;23.818;2023-04-06T06:03:06;93608.72;;;2.17;100.00
40384;BME280;26097;42.366;23.818;2023-04-06T06:06:08;93600.81;;;2.38;100.00
40384;BME280;26097;42.366;23.818;2023-04-06T06:09:09;93593.28;;;2.17;100.00
40384;BME280;26097;42.366;23.818;2023-04-06T06:12:09;93593.84;;;2.40;100.00
40384;BME280;26097;42.366;23.818;2023-04-06T06:15:10;93608.91;;;2.30;100.00
40384;BME280;26097;42.366;23.818;2023-04-06T06:18:10;93596.16;;;2.28;100.00
40384;BME280;26097;42.366;23.818;2023-04-06T06:21:11;93597.88;;;2.28;100.00
40384;BME280;26097;42.366;23.818;2023-04-06T06:24:12;93590.91;;;2.30;100.00
40384;BME280;26097;42.366;23.818;2023-04-06T06:27:12;93607.81;;;2.18;100.00
40384;BME280;26097;42.366;23.818;2023-04-06T06:30:13;93595.78;;;2.19;100.00
40384;BME280;26097;42.366;23.818;2023-04-06T06:33:13;93586.88;;;2.08;100.00
40384;BME280;26097;42.366;23.818;2023-04-06T06:36:14;93595.28;;;1.77;100.00
40384;BME280;26097;42.366;23.818;2023-04-06T06:39:14;93592.03;;;1.73;100.00
40384;BME280;26097;42.366;23.818;2023-04-06T06:42:15;93607.75;;;1.49;100.00
40384;BME280;26097;42.366;23.818;2023-04-06T06:45:15;93594.16;;;1.47;100.00
40384;BME280;26097;42.366;23.818;2023-04-06T06:48:16;93603.59;;;1.47;100.00
40384;BME280;26097;42.366;23.818;2023-04-06T06:51:16;93599.53;;;1.60;100.00
40384;BME280;26097;42.366;23.818;2023-04-06T06:54:17;93594.75;;;1.70;100.00
40384;BME280;26097;42.366;23.818;2023-04-06T06:57:17;93602.69;;;1.83;100.00
40384;BME280;26097;42.366;23.818;2023-04-06T07:00:18;93593.59;;;2.11;100.00
40384;BME280;26097;42.366;23.818;2023-04-06T07:03:20;93587.69;;;2.26;100.00
40384;BME280;26097;42.366;23.818;2023-04-06T07:06:20;93607.28;;;2.45;100.00
40384;BME280;26097;42.366;23.818;2023-04-06T07:09:21;93602.59;;;2.53;100.00
40384;BME280;26097;42.366;23.818;2023-04-06T07:12:21;93586.75;;;2.61;100.00
40384;BME280;26097;42.366;23.818;2023-04-06T07:15:22;93586.00;;;2.91;100.00
40384;BME280;26097;42.366;23.818;2023-04-06T07:18:23;93583.44;;;2.75;100.00
40384;BME280;26097;42.366;23.818;2023-04-06T07:21:23;93595.56;;;2.89;100.00
40384;BME280;26097;42.366;23.818;2023-04-06T07:24:23;93589.75;;;2.85;100.00
40384;BME280;26097;42.366;23.818;2023-04-06T07:27:24;93586.56;;;2.64;100.00
40384;BME280;26097;42.366;23.818;2023-04-06T07:30:24;93585.19;;;2.91;100.00
40384;BME280;26097;42.366;23.818;2023-04-06T07:33:27;93607.03;;;2.99;100.00
40384;BME280;26097;42.366;23.818;2023-04-06T07:36:30;93576.31;;;2.96;100.00
40384;BME280;26097;42.366;23.818;2023-04-06T07:39:30;93590.63;;;3.33;100.00
40384;BME280;26097;42.366;23.818;2023-04-06T07:42:30;93581.72;;;3.54;100.00
40384;BME280;26097;42.366;23.818;2023-04-06T07:45:33;93568.66;;;3.72;100.00
40384;BME280;26097;42.366;23.818;2023-04-06T07:48:33;93583.78;;;3.78;100.00
40384;BME280;26097;42.366;23.818;2023-04-06T07:51:36;93578.19;;;4.00;100.00
40384;BME280;26097;42.366;23.818;2023-04-06T07:54:37;93583.72;;;3.94;100.00
40384;BME280;26097;42.366;23.818;2023-04-06T07:57:37;93578.34;;;4.13;100.00
40384;BME280;26097;42.366;23.818;2023-04-06T08:00:38;93572.81;;;4.34;100.00
40384;BME280;26097;42.366;23.818;2023-04-06T08:03:38;93583.31;;;4.46;87.74
40384;BME280;26097;42.366;23.818;2023-04-06T08:06:39;93568.16;;;4.68;83.74
40384;BME280;26097;42.366;23.818;2023-04-06T08:09:41;93569.25;;;4.93;80.13
40384;BME280;26097;42.366;23.818;2023-04-06T08:12:41;93563.00;;;5.25;78.22
40384;BME280;26097;42.366;23.818;2023-04-06T08:15:42;93566.63;;;5.08;75.71
40384;BME280;26097;42.366;23.818;2023-04-06T08:18:42;93554.41;;;5.24;70.90
40384;BME280;26097;42.366;23.818;2023-04-06T08:21:43;93570.19;;;4.92;67.96
40384;BME280;26097;42.366;23.818;2023-04-06T08:24:43;93553.25;;;5.01;69.22
40384;BME280;26097;42.366;23.818;2023-04-06T08:27:44;93558.78;;;5.37;68.13
40384;BME280;26097;42.366;23.818;2023-04-06T08:30:44;93549.66;;;5.31;68.17
40384;BME280;26097;42.366;23.818;2023-04-06T08:33:45;93553.84;;;5.47;67.54
40384;BME280;26097;42.366;23.818;2023-04-06T08:36:45;93550.28;;;5.22;65.49
40384;BME280;26097;42.366;23.818;2023-04-06T08:39:46;93542.69;;;5.46;65.94
40384;BME280;26097;42.366;23.818;2023-04-06T08:42:54;93539.00;;;5.50;64.66
40384;BME280;26097;42.366;23.818;2023-04-06T08:45:55;93548.69;;;5.47;66.02
40384;BME280;26097;42.366;23.818;2023-04-06T08:49:00;93540.03;;;5.61;66.37
40384;BME280;26097;42.366;23.818;2023-04-06T08:52:01;93560.25;;;5.41;65.67
40384;BME280;26097;42.366;23.818;2023-04-06T08:55:02;93550.59;;;5.03;66.23
40384;BME280;26097;42.366;23.818;2023-04-06T08:58:03;93542.88;;;5.43;65.34
40384;BME280;26097;42.366;23.818;2023-04-06T09:01:08;93544.19;;;5.76;64.67
40384;BME280;26097;42.366;23.818;2023-04-06T09:04:10;93557.44;;;5.71;64.65
40384;BME280;26097;42.366;23.818;2023-04-06T09:07:11;93552.66;;;5.65;63.98
40384;BME280;26097;42.366;23.818;2023-04-06T09:10:11;93543.56;;;5.72;63.97
40384;BME280;26097;42.366;23.818;2023-04-06T09:13:11;93549.13;;;5.53;63.78
40384;BME280;26097;42.366;23.818;2023-04-06T09:16:12;93563.56;;;5.43;65.33
40384;BME280;26097;42.366;23.818;2023-04-06T09:19:13;93553.00;;;5.46;65.89
40384;BME280;26097;42.366;23.818;2023-04-06T09:22:13;93559.84;;;4.92;69.64
40384;BME280;26097;42.366;23.818;2023-04-06T09:25:19;93547.66;;;4.94;72.43
40384;BME280;26097;42.366;23.818;2023-04-06T09:28:20;93551.94;;;4.81;72.15
40384;BME280;26097;42.366;23.818;2023-04-06T09:31:25;93544.88;;;4.55;72.13
40384;BME280;26097;42.366;23.818;2023-04-06T09:34:26;93546.91;;;4.65;71.13
40384;BME280;26097;42.366;23.818;2023-04-06T09:37:27;93556.56;;;4.61;71.50
40384;BME280;26097;42.366;23.818;2023-04-06T09:40:28;93547.28;;;4.44;72.88
40384;BME280;26097;42.366;23.818;2023-04-06T09:43:29;93539.00;;;4.24;72.96
40384;BME280;26097;42.366;23.818;2023-04-06T09:46:37;93541.28;;;4.29;72.71
40384;BME280;26097;42.366;23.818;2023-04-06T09:49:39;93547.38;;;4.42;72.74
40384;BME280;26097;42.366;23.818;2023-04-06T09:55:45;93538.41;;;4.63;73.97
40384;BME280;26097;42.366;23.818;2023-04-06T09:58:47;93523.00;;;4.76;73.64
40384;BME280;26097;42.366;23.818;2023-04-06T10:01:51;93530.63;;;4.77;72.42
40384;BME280;26097;42.366;23.818;2023-04-06T10:08:33;93521.72;;;5.23;68.92
40384;BME280;26097;42.366;23.818;2023-04-06T10:11:35;93529.53;;;5.09;70.08
40384;BME280;26097;42.366;23.818;2023-04-06T10:14:36;93529.16;;;5.15;69.28
40384;BME280;26097;42.366;23.818;2023-04-06T10:17:37;93529.44;;;5.38;69.55
40384;BME280;26097;42.366;23.818;2023-04-06T10:21:04;93525.66;;;5.16;68.80
40384;BME280;26097;42.366;23.818;2023-04-06T10:24:08;93526.78;;;5.52;66.19
40384;BME280;26097;42.366;23.818;2023-04-06T10:27:13;93535.31;;;5.80;67.08
40384;BME280;26097;42.366;23.818;2023-04-06T10:30:15;93530.00;;;5.69;66.73
40384;BME280;26097;42.366;23.818;2023-04-06T10:33:18;93529.69;;;5.74;66.35
40384;BME280;26097;42.366;23.818;2023-04-06T10:36:24;93536.41;;;5.50;65.77
40384;BME280;26097;42.366;23.818;2023-04-06T10:39:25;93541.69;;;5.62;65.13
40384;BME280;26097;42.366;23.818;2023-04-06T10:42:37;93518.25;;;5.91;65.59
40384;BME280;26097;42.366;23.818;2023-04-06T10:45:39;93509.22;;;5.83;64.10
40384;BME280;26097;42.366;23.818;2023-04-06T10:48:42;93508.13;;;6.00;64.19
40384;BME280;26097;42.366;23.818;2023-04-06T10:51:43;93508.78;;;5.64;63.79
40384;BME280;26097;42.366;23.818;2023-04-06T10:54:43;93507.34;;;5.60;62.75
40384;BME280;26097;42.366;23.818;2023-04-06T10:57:46;93519.22;;;5.49;63.55
40384;BME280;26097;42.366;23.818;2023-04-06T11:00:48;93513.91;;;5.25;64.39
40384;BME280;26097;42.366;23.818;2023-04-06T11:03:50;93519.19;;;5.09;64.71
40384;BME280;26097;42.366;23.818;2023-04-06T11:06:51;93506.84;;;5.14;66.30
40384;BME280;26097;42.366;23.818;2023-04-06T11:09:52;93518.03;;;5.00;67.04
40384;BME280;26097;42.366;23.818;2023-04-06T11:12:53;93492.72;;;5.33;65.41
40384;BME280;26097;42.366;23.818;2023-04-06T11:15:54;93499.47;;;5.48;65.37
40384;BME280;26097;42.366;23.818;2023-04-06T11:19:00;93495.78;;;5.52;66.19
40384;BME280;26097;42.366;23.818;2023-04-06T11:22:07;93506.72;;;5.56;63.93
40384;BME280;26097;42.366;23.818;2023-04-06T11:25:08;93507.28;;;5.87;64.03
40384;BME280;26097;42.366;23.818;2023-04-06T11:28:08;93505.13;;;5.81;64.18
40384;BME280;26097;42.366;23.818;2023-04-06T11:31:10;93508.75;;;6.04;64.53
40384;BME280;26097;42.366;23.818;2023-04-06T11:34:22;93498.06;;;5.29;64.51
40384;BME280;26097;42.366;23.818;2023-04-06T11:37:26;93511.66;;;5.46;64.66
40384;BME280;26097;42.366;23.818;2023-04-06T11:40:26;93502.63;;;5.79;64.23
40384;BME280;26097;42.366;23.818;2023-04-06T11:43:30;93505.72;;;5.84;62.53
40384;BME280;26097;42.366;23.818;2023-04-06T11:46:30;93499.47;;;5.48;64.19
40384;BME280;26097;42.366;23.818;2023-04-06T11:49:32;93504.06;;;5.83;62.81
40384;BME280;26097;42.366;23.818;2023-04-06T11:52:34;93505.34;;;6.04;62.27
40384;BME280;26097;42.366;23.818;2023-04-06T11:55:38;93487.13;;;6.05;61.47
40384;BME280;26097;42.366;23.818;2023-04-06T11:58:39;93499.59;;;5.60;61.62
40384;BME280;26097;42.366;23.818;2023-04-06T12:01:46;93492.38;;;5.24;63.83
40384;BME280;26097;42.366;23.818;2023-04-06T12:04:46;93489.13;;;5.48;62.85
40384;BME280;26097;42.366;23.818;2023-04-06T12:07:47;93484.66;;;5.37;63.31
40384;BME280;26097;42.366;23.818;2023-04-06T12:10:47;93486.66;;;5.60;62.95
40384;BME280;26097;42.366;23.818;2023-04-06T12:13:47;93488.81;;;5.40;62.36
40384;BME280;26097;42.366;23.818;2023-04-06T12:16:48;93480.88;;;5.56;62.52
40384;BME280;26097;42.366;23.818;2023-04-06T12:19:49;93484.00;;;5.87;60.56
40384;BME280;26097;42.366;23.818;2023-04-06T12:22:49;93487.94;;;5.93;59.79
40384;BME280;26097;42.366;23.818;2023-04-06T12:25:49;93475.00;;;5.93;60.42
40384;BME280;26097;42.366;23.818;2023-04-06T12:28:50;93477.91;;;6.01;59.32
40384;BME280;26097;42.366;23.818;2023-04-06T12:31:51;93491.34;;;5.80;59.77
40384;BME280;26097;42.366;23.818;2023-04-06T12:34:53;93484.81;;;5.75;59.08
40384;BME280;26097;42.366;23.818;2023-04-06T12:37:53;93494.84;;;5.79;59.21
40384;BME280;26097;42.366;23.818;2023-04-06T12:40:56;93495.00;;;6.04;58.97
40384;BME280;26097;42.366;23.818;2023-04-06T12:43:58;93480.91;;;6.08;58.62
40384;BME280;26097;42.366;23.818;2023-04-06T12:46:59;93473.13;;;5.95;58.72
40384;BME280;26097;42.366;23.818;2023-04-06T12:50:00;93492.91;;;6.22;58.42
40384;BME280;26097;42.366;23.818;2023-04-06T12:53:00;93475.84;;;6.06;58.82
40384;BME280;26097;42.366;23.818;2023-04-06T12:56:02;93477.31;;;6.48;59.07
40384;BME280;26097;42.366;23.818;2023-04-06T12:59:02;93469.66;;;6.59;58.30
40384;BME280;26097;42.366;23.818;2023-04-06T13:02:03;93464.63;;;6.32;58.54
40384;BME280;26097;42.366;23.818;2023-04-06T13:05:05;93468.09;;;6.19;58.95
40384;BME280;26097;42.366;23.818;2023-04-06T13:08:05;93466.75;;;6.13;58.38
40384;BME280;26097;42.366;23.818;2023-04-06T13:11:06;93463.16;;;6.40;58.73
40384;BME280;26097;42.366;23.818;2023-04-06T13:14:09;93462.81;;;6.58;58.78
40384;BME280;26097;42.366;23.818;2023-04-06T13:17:10;93464.56;;;6.57;59.15
40384;BME280;26097;42.366;23.818;2023-04-06T13:20:11;93455.63;;;6.37;57.98
40384;BME280;26097;42.366;23.818;2023-04-06T13:23:12;93456.06;;;6.18;58.54
40384;BME280;26097;42.366;23.818;2023-04-06T13:26:12;93453.59;;;6.17;60.32
40384;BME280;26097;42.366;23.818;2023-04-06T13:29:15;93458.66;;;5.92;59.60
40384;BME280;26097;42.366;23.818;2023-04-06T13:32:15;93459.28;;;5.70;60.10
40384;BME280;26097;42.366;23.818;2023-04-06T13:35:16;93441.28;;;5.55;59.81
40384;BME280;26097;42.366;23.818;2023-04-06T13:38:17;93448.31;;;5.53;60.55
40384;BME280;26097;42.366;23.818;2023-04-06T13:41:23;93441.66;;;5.49;60.71
40384;BME280;26097;42.366;23.818;2023-04-06T13:44:23;93444.16;;;5.38;61.05
40384;BME280;26097;42.366;23.818;2023-04-06T13:47:24;93450.56;;;5.45;61.07
40384;BME280;26097;42.366;23.818;2023-04-06T13:50:28;93435.97;;;5.44;61.52
40384;BME280;26097;42.366;23.818;2023-04-06T13:53:28;93445.28;;;5.34;61.64
40384;BME280;26097;42.366;23.818;2023-04-06T13:56:28;93445.94;;;5.10;61.50
40384;BME280;26097;42.366;23.818;2023-04-06T13:59:33;93444.88;;;4.99;61.98
40384;BME280;26097;42.366;23.818;2023-04-06T14:02:33;93449.28;;;5.12;62.36
40384;BME280;26097;42.366;23.818;2023-04-06T14:05:34;93441.41;;;5.13;62.04
40384;BME280;26097;42.366;23.818;2023-04-06T14:08:34;93447.91;;;5.06;62.54
40384;BME280;26097;42.366;23.818;2023-04-06T14:11:35;93460.94;;;5.97;59.90
40384;BME280;26097;42.366;23.818;2023-04-06T14:14:36;93448.81;;;5.84;59.48
40384;BME280;26097;42.366;23.818;2023-04-06T14:17:37;93443.13;;;5.79;61.18
40384;BME280;26097;42.366;23.818;2023-04-06T14:20:38;93447.13;;;6.35;59.47
40384;BME280;26097;42.366;23.818;2023-04-06T14:23:38;93448.72;;;6.62;56.91
40384;BME280;26097;42.366;23.818;2023-04-06T14:26:39;93462.22;;;6.41;57.52
40384;BME280;26097;42.366;23.818;2023-04-06T14:29:41;93449.34;;;6.16;59.23
40384;BME280;26097;42.366;23.818;2023-04-06T14:32:41;93448.75;;;6.49;56.80
40384;BME280;26097;42.366;23.818;2023-04-06T14:35:42;93447.41;;;6.43;57.15
40384;BME280;26097;42.366;23.818;2023-04-06T14:38:42;93441.34;;;6.69;57.58
40384;BME280;26097;42.366;23.818;2023-04-06T14:41:44;93436.25;;;6.67;56.71
40384;BME280;26097;42.366;23.818;2023-04-06T14:44:45;93438.03;;;6.67;56.73
40384;BME280;26097;42.366;23.818;2023-04-06T14:47:46;93441.06;;;6.85;56.20
40384;BME280;26097;42.366;23.818;2023-04-06T14:50:53;93435.75;;;6.62;55.46
40384;BME280;26097;42.366;23.818;2023-04-06T14:53:54;93436.47;;;6.64;56.25
40384;BME280;26097;42.366;23.818;2023-04-06T14:56:54;93452.06;;;6.51;55.50
40384;BME280;26097;42.366;23.818;2023-04-06T14:59:55;93451.38;;;6.74;56.00
40384;BME280;26097;42.366;23.818;2023-04-06T15:02:55;93451.50;;;6.22;56.24
40384;BME280;26097;42.366;23.818;2023-04-06T15:05:56;93461.03;;;6.34;56.06
40384;BME280;26097;42.366;23.818;2023-04-06T15:08:57;93462.06;;;6.19;56.52
40384;BME280;26097;42.366;23.818;2023-04-06T15:11:57;93472.84;;;6.25;56.43
40384;BME280;26097;42.366;23.818;2023-04-06T15:14:58;93469.84;;;6.06;56.23
40384;BME280;26097;42.366;23.818;2023-04-06T15:17:59;93473.00;;;5.96;56.51
40384;BME280;26097;42.366;23.818;2023-04-06T15:21:02;93470.94;;;5.76;56.89
40384;BME280;26097;42.366;23.818;2023-04-06T15:24:03;93475.31;;;5.75;57.21
40384;BME280;26097;42.366;23.818;2023-04-06T15:27:06;93475.09;;;5.52;57.16
40384;BME280;26097;42.366;23.818;2023-04-06T15:30:06;93469.84;;;5.26;57.08
40384;BME280;26097;42.366;23.818;2023-04-06T15:33:08;93482.84;;;5.12;57.05
40384;BME280;26097;42.366;23.818;2023-04-06T15:36:26;93490.00;;;4.94;57.37
40384;BME280;26097;42.366;23.818;2023-04-06T15:39:28;93489.72;;;4.71;57.68
40384;BME280;26097;42.366;23.818;2023-04-06T15:42:29;93488.56;;;4.48;59.22
40384;BME280;26097;42.366;23.818;2023-04-06T15:45:29;93485.25;;;4.31;60.36
40384;BME280;26097;42.366;23.818;2023-04-06T15:48:29;93499.84;;;4.18;61.33
40384;BME280;26097;42.366;23.818;2023-04-06T15:51:31;93499.75;;;4.05;61.29
40384;BME280;26097;42.366;23.818;2023-04-06T15:54:32;93505.38;;;3.97;62.12
40384;BME280;26097;42.366;23.818;2023-04-06T15:57:33;93502.31;;;3.76;63.10